createdAt,value
2022-12-22T00:00:01.607Z,15.53
2022-12-22T00:02:47.315Z,15.15
2022-12-22T00:05:34.537Z,14.85
2022-12-22T00:08:19.681Z,14.88
2022-12-22T00:11:04.976Z,14.55
2022-12-22T00:13:50.107Z,15.50
2022-12-22T00:16:35.349Z,16.05
2022-12-22T00:19:20.800Z,15.50
2022-12-22T00:22:05.930Z,16.17
2022-12-22T00:24:51.141Z,16.77
2022-12-22T00:27:45.454Z,16.30
2022-12-22T00:30:31.495Z,15.98
2022-12-22T00:33:16.543Z,16.02
2022-12-22T00:36:01.575Z,16.85
2022-12-22T00:38:46.573Z,16.63
2022-12-22T00:41:31.745Z,15.43
2022-12-22T00:44:16.623Z,15.73
2022-12-22T00:47:02.560Z,16.50
2022-12-22T00:49:48.351Z,16.85
2022-12-22T00:52:33.944Z,16.85
2022-12-22T00:55:19.245Z,15.52
2022-12-22T00:58:04.175Z,16.30
2022-12-22T01:00:49.425Z,17.35
2022-12-22T01:03:34.542Z,17.23
2022-12-22T01:06:20.487Z,16.10
2022-12-22T01:09:06.206Z,15.63
2022-12-22T01:11:51.944Z,17.63
2022-12-22T01:14:37.038Z,17.65
2022-12-22T01:17:21.805Z,16.40
2022-12-22T01:20:06.624Z,18.45
2022-12-22T01:22:51.766Z,18.60
2022-12-22T01:25:37.385Z,18.55
2022-12-22T01:28:23.029Z,18.10
2022-12-22T01:31:08.218Z,18.08
2022-12-22T01:33:53.254Z,18.60
2022-12-22T01:36:38.317Z,19.20
2022-12-22T01:39:23.331Z,18.15
2022-12-22T01:42:08.444Z,19.55
2022-12-22T01:44:53.558Z,18.20
2022-12-22T01:47:48.066Z,18.58
2022-12-22T01:50:38.006Z,19.17
2022-12-22T01:53:26.033Z,19.02
2022-12-22T01:56:11.959Z,19.20
2022-12-22T01:59:00.129Z,18.00
2022-12-22T02:01:45.239Z,19.40
2022-12-22T02:04:30.063Z,19.77
2022-12-22T02:07:22.621Z,20.05
2022-12-22T02:10:19.575Z,20.20
2022-12-22T02:13:22.851Z,19.10
2022-12-22T02:16:26.951Z,19.83
2022-12-22T02:19:33.654Z,19.42
2022-12-22T02:22:18.683Z,18.85
2022-12-22T02:25:13.423Z,18.60
2022-12-22T02:27:59.896Z,17.88
2022-12-22T02:30:44.944Z,19.48
2022-12-22T02:36:28.454Z,19.77
2022-12-22T02:39:32.440Z,19.88
2022-12-22T02:42:33.972Z,19.20
2022-12-22T02:45:18.945Z,20.65
2022-12-22T02:48:07.181Z,19.88
2022-12-22T02:51:01.092Z,19.92
2022-12-22T02:53:47.417Z,19.38
2022-12-22T02:59:17.022Z,20.55
2022-12-22T03:02:03.345Z,19.60
2022-12-22T03:07:33.397Z,20.77
2022-12-22T03:10:18.499Z,21.75
2022-12-22T03:13:03.589Z,20.48
2022-12-22T03:15:48.751Z,19.35
2022-12-22T03:18:33.621Z,20.45
2022-12-22T03:21:18.692Z,21.08
2022-12-22T03:24:03.783Z,19.70
2022-12-22T03:26:30.179Z,19.33
2022-12-22T03:28:56.591Z,19.45
2022-12-22T03:31:22.971Z,21.08
2022-12-22T03:33:49.308Z,20.65
2022-12-22T03:36:15.625Z,20.20
2022-12-22T03:38:41.936Z,20.67
2022-12-22T03:41:08.275Z,17.92
2022-12-22T03:43:53.496Z,20.55
2022-12-22T03:46:32.344Z,18.15
2022-12-22T03:49:11.445Z,18.98
2022-12-22T03:51:40.674Z,17.13
2022-12-22T03:54:07.601Z,17.88
2022-12-22T03:56:34.016Z,18.45
2022-12-22T03:59:00.380Z,14.70
2022-12-22T04:01:26.852Z,15.10
2022-12-22T04:03:53.309Z,17.70
2022-12-22T04:06:19.866Z,14.40
2022-12-22T04:08:46.633Z,12.43
2022-12-22T04:11:32.174Z,15.55
2022-12-22T04:13:58.605Z,14.30
2022-12-22T04:16:25.068Z,10.60
2022-12-22T04:18:51.560Z,10.13
2022-12-22T04:21:17.892Z,10.32
2022-12-22T04:23:44.258Z,12.85
2022-12-22T04:26:10.604Z,12.13
2022-12-22T04:28:37.141Z,12.30
2022-12-22T04:31:03.560Z,11.50
2022-12-22T04:33:29.993Z,10.30
2022-12-22T04:35:56.311Z,9.98
2022-12-22T04:38:22.629Z,12.65
2022-12-22T04:40:48.993Z,12.70
2022-12-22T04:43:15.343Z,8.60
2022-12-22T04:45:41.735Z,8.02
2022-12-22T04:48:08.132Z,7.72
2022-12-22T04:50:34.473Z,7.70
2022-12-22T04:53:00.968Z,7.72
2022-12-22T04:55:27.431Z,8.80
2022-12-22T04:57:53.802Z,7.72
2022-12-22T05:00:20.326Z,9.77
2022-12-22T05:02:46.817Z,6.07
2022-12-22T05:05:13.315Z,9.35
2022-12-22T05:07:39.683Z,8.45
2022-12-22T05:10:06.317Z,8.63
2022-12-22T05:12:51.330Z,6.38
2022-12-22T05:15:17.621Z,7.70
2022-12-22T05:17:43.979Z,8.38
2022-12-22T05:20:10.506Z,7.35
2022-12-22T05:22:36.853Z,9.10
2022-12-22T05:25:03.312Z,7.47
2022-12-22T05:27:29.709Z,6.57
2022-12-22T05:29:56.033Z,8.35
2022-12-22T05:32:22.352Z,7.53
2022-12-22T05:34:48.725Z,6.90
2022-12-22T05:37:15.052Z,6.47
2022-12-22T05:39:41.355Z,7.25
2022-12-22T05:42:07.697Z,4.10
2022-12-22T05:44:34.005Z,6.75
2022-12-22T05:47:00.352Z,7.43
2022-12-22T05:49:26.687Z,7.38
2022-12-22T05:51:54.187Z,7.07
2022-12-22T05:54:20.480Z,6.97
2022-12-22T05:56:46.782Z,7.22
2022-12-22T05:59:13.207Z,8.07
2022-12-22T06:01:39.566Z,7.43
2022-12-22T06:04:06.050Z,5.38
2022-12-22T06:06:32.625Z,6.03
2022-12-22T06:08:58.941Z,5.80
2022-12-22T06:11:25.270Z,5.28
2022-12-22T06:13:51.613Z,4.07
2022-12-22T06:16:17.947Z,4.60
2022-12-22T06:18:44.317Z,4.40
2022-12-22T06:21:10.688Z,4.88
2022-12-22T06:23:37.006Z,4.30
2022-12-22T06:26:03.351Z,3.75
2022-12-22T06:28:29.725Z,3.10
2022-12-22T06:30:56.163Z,3.95
2022-12-22T06:33:22.725Z,2.85
2022-12-22T06:35:53.952Z,3.47
2022-12-22T06:38:24.156Z,3.00
2022-12-22T06:40:51.579Z,3.58
2022-12-22T06:43:17.929Z,2.88
2022-12-22T06:45:44.460Z,2.65
2022-12-22T06:48:11.710Z,2.78
2022-12-22T06:50:38.041Z,2.28
2022-12-22T06:53:04.909Z,2.60
2022-12-22T06:55:31.442Z,2.42
2022-12-22T06:57:57.761Z,2.83
2022-12-22T07:00:24.960Z,2.70
2022-12-22T07:02:51.430Z,2.55
2022-12-22T07:05:17.976Z,2.33
2022-12-22T07:07:44.516Z,2.90
2022-12-22T07:10:11.334Z,2.72
2022-12-22T07:12:37.675Z,3.75
2022-12-22T07:15:04.247Z,2.05
2022-12-22T07:17:30.593Z,1.90
2022-12-22T07:19:56.911Z,2.80
2022-12-22T07:22:29.596Z,2.13
2022-12-22T07:24:56.882Z,2.70
2022-12-22T07:27:23.278Z,2.50
2022-12-22T07:29:49.639Z,3.03
2022-12-22T07:32:15.963Z,2.95
2022-12-22T07:34:42.491Z,2.58
2022-12-22T07:37:08.868Z,2.30
2022-12-22T07:39:35.254Z,2.30
2022-12-22T07:42:20.230Z,2.75
2022-12-22T07:44:46.527Z,2.78
2022-12-22T07:47:12.824Z,2.45
2022-12-22T07:49:57.776Z,3.40
2022-12-22T07:52:24.068Z,1.85
2022-12-22T07:54:50.401Z,1.50
2022-12-22T07:57:16.800Z,1.50
2022-12-22T07:59:43.109Z,1.30
2022-12-22T08:02:11.099Z,1.63
2022-12-22T08:04:37.772Z,1.77
2022-12-22T08:07:04.143Z,2.25
2022-12-22T08:09:30.452Z,2.72
2022-12-22T08:11:56.812Z,2.67
2022-12-22T08:14:23.144Z,2.30
2022-12-22T08:16:49.705Z,2.95
2022-12-22T08:19:16.194Z,3.80
2022-12-22T08:21:48.365Z,2.60
2022-12-22T08:24:18.644Z,2.42
2022-12-22T08:26:47.046Z,1.83
2022-12-22T08:29:16.257Z,2.35
2022-12-22T08:31:43.098Z,2.13
2022-12-22T08:34:12.514Z,2.30
2022-12-22T08:36:41.291Z,2.28
2022-12-22T08:39:08.032Z,1.98
2022-12-22T08:41:49.991Z,2.58
2022-12-22T08:44:23.797Z,2.08
2022-12-22T08:46:50.560Z,2.30
2022-12-22T08:49:17.489Z,2.53
2022-12-22T08:51:44.381Z,2.53
2022-12-22T08:54:11.190Z,2.58
2022-12-22T08:56:37.783Z,3.35
2022-12-22T08:59:05.447Z,2.10
2022-12-22T09:01:32.931Z,2.20
2022-12-22T09:03:59.384Z,1.92
2022-12-22T09:06:27.473Z,2.38
2022-12-22T09:08:55.294Z,1.15
2022-12-22T09:11:21.588Z,1.52
2022-12-22T09:13:47.925Z,1.95
2022-12-22T09:16:14.317Z,2.08
2022-12-22T09:18:40.734Z,1.48
2022-12-22T09:21:07.028Z,2.17
2022-12-22T09:23:33.404Z,2.20
2022-12-22T09:25:59.841Z,1.65
2022-12-22T09:28:26.204Z,1.40
2022-12-22T09:30:53.171Z,1.30
2022-12-22T09:33:19.513Z,2.05
2022-12-22T09:35:45.910Z,1.73
2022-12-22T09:38:12.221Z,2.13
2022-12-22T09:40:39.148Z,1.80
2022-12-22T09:43:05.584Z,1.88
2022-12-22T09:45:33.831Z,1.73
2022-12-22T09:48:01.180Z,1.77
2022-12-22T09:50:27.834Z,2.20
2022-12-22T09:52:57.529Z,2.33
2022-12-22T09:55:23.843Z,2.50
2022-12-22T09:57:50.565Z,2.05
2022-12-22T10:00:21.897Z,2.10
2022-12-22T10:02:54.345Z,1.98
2022-12-22T10:05:38.368Z,2.20
2022-12-22T10:08:15.540Z,2.40
2022-12-22T10:10:42.379Z,2.53
2022-12-22T10:13:14.358Z,1.67
2022-12-22T10:15:41.788Z,1.85
2022-12-22T10:18:22.658Z,2.38
2022-12-22T10:21:09.288Z,1.63
2022-12-22T10:23:40.040Z,1.33
2022-12-22T10:28:58.642Z,2.28
2022-12-22T10:31:26.423Z,1.80
2022-12-22T10:33:57.793Z,1.60
2022-12-22T10:36:28.502Z,1.88
2022-12-22T10:39:05.741Z,1.60
2022-12-22T10:41:34.829Z,1.80
2022-12-22T10:44:04.086Z,2.35
2022-12-22T10:46:32.409Z,1.30
2022-12-22T10:49:09.616Z,1.67
2022-12-22T10:51:36.045Z,1.65
2022-12-22T10:54:02.566Z,1.60
2022-12-22T10:56:30.173Z,1.40
2022-12-22T10:59:04.571Z,2.05
2022-12-22T11:01:32.185Z,1.90
2022-12-22T11:04:14.197Z,3.10
2022-12-22T11:06:41.616Z,3.05
2022-12-22T11:09:31.826Z,2.42
2022-12-22T11:11:58.128Z,3.17
2022-12-22T11:14:42.918Z,5.55
2022-12-22T11:17:16.318Z,5.93
2022-12-22T11:20:11.999Z,6.00
2022-12-22T11:22:41.332Z,4.90
2022-12-22T11:25:22.724Z,6.10
2022-12-22T11:27:52.191Z,5.10
2022-12-22T11:30:20.455Z,6.60
2022-12-22T11:32:59.031Z,6.82
2022-12-22T11:35:43.403Z,7.00
2022-12-22T11:38:13.525Z,6.47
2022-12-22T11:40:42.678Z,5.95
2022-12-22T11:43:12.170Z,4.72
2022-12-22T11:45:52.554Z,5.15
2022-12-22T11:48:40.023Z,6.53
2022-12-22T11:51:13.261Z,4.35
2022-12-22T11:54:02.815Z,5.85
2022-12-22T11:56:41.424Z,5.82
2022-12-22T11:59:14.267Z,5.00
2022-12-22T12:01:59.666Z,5.70
2022-12-22T12:04:42.913Z,4.97
2022-12-22T12:07:25.156Z,5.82
2022-12-22T12:10:07.111Z,3.85
2022-12-22T12:12:39.283Z,4.65
2022-12-22T12:15:14.750Z,5.07
2022-12-22T12:17:51.394Z,5.55
2022-12-22T12:20:23.808Z,6.13
2022-12-22T12:22:52.917Z,6.00
2022-12-22T12:25:25.843Z,6.35
2022-12-22T12:27:55.588Z,3.17
2022-12-22T12:30:39.288Z,6.60
2022-12-22T12:33:17.862Z,6.78
2022-12-22T12:35:47.050Z,6.82
2022-12-22T12:38:56.813Z,8.00
2022-12-22T12:41:17.092Z,8.07
2022-12-22T12:43:44.490Z,9.60
2022-12-22T12:46:29.938Z,8.90
2022-12-22T12:48:56.359Z,9.40
2022-12-22T12:51:41.203Z,9.18
2022-12-22T12:54:43.482Z,9.77
2022-12-22T12:57:29.429Z,9.88
2022-12-22T12:59:57.142Z,9.38
2022-12-22T13:02:26.817Z,9.75
2022-12-22T13:05:22.664Z,10.38
2022-12-22T13:08:21.263Z,9.93
2022-12-22T13:10:53.489Z,10.23
2022-12-22T13:13:22.665Z,10.18
2022-12-22T13:16:09.331Z,9.82
2022-12-22T13:18:50.744Z,10.25
2022-12-22T13:24:26.009Z,10.10
2022-12-22T13:26:55.212Z,9.32
2022-12-22T13:29:21.632Z,10.82
2022-12-22T13:31:48.034Z,10.57
2022-12-22T13:37:44.899Z,10.25
2022-12-22T13:40:13.203Z,10.32
2022-12-22T13:42:42.035Z,11.45
2022-12-22T13:45:14.202Z,11.15
2022-12-22T13:47:41.889Z,10.57
2022-12-22T13:50:16.243Z,11.63
2022-12-22T13:52:42.643Z,10.70
2022-12-22T13:55:16.346Z,11.38
2022-12-22T13:57:42.736Z,11.40
2022-12-22T14:00:19.233Z,11.77
2022-12-22T14:02:45.657Z,11.50
2022-12-22T14:05:13.174Z,11.27
2022-12-22T14:07:39.547Z,9.55
2022-12-22T14:10:07.444Z,11.77
2022-12-22T14:12:40.033Z,9.95
2022-12-22T14:15:08.631Z,10.50
2022-12-22T14:17:40.724Z,10.52
2022-12-22T14:20:19.727Z,10.90
2022-12-22T14:22:48.750Z,9.80
2022-12-22T14:25:29.401Z,11.57
2022-12-22T14:27:56.490Z,9.02
2022-12-22T14:30:52.341Z,11.30
2022-12-22T14:33:27.611Z,11.37
2022-12-22T14:36:26.272Z,11.50
2022-12-22T14:38:57.167Z,11.65
2022-12-22T14:41:41.628Z,10.30
2022-12-22T14:44:15.571Z,11.45
2022-12-22T14:46:42.850Z,12.20
2022-12-22T14:49:19.085Z,9.52
2022-12-22T14:52:00.799Z,11.57
2022-12-22T14:54:27.933Z,12.45
2022-12-22T14:56:59.094Z,12.63
2022-12-22T14:59:26.874Z,12.20
2022-12-22T15:01:57.660Z,11.60
2022-12-22T15:04:24.155Z,12.98
2022-12-22T15:06:50.543Z,12.15
2022-12-22T15:09:16.873Z,11.07
2022-12-22T15:11:47.525Z,11.35
2022-12-22T15:14:16.190Z,11.63
2022-12-22T15:16:42.841Z,11.70
2022-12-22T15:19:12.606Z,12.10
2022-12-22T15:21:38.963Z,10.00
2022-12-22T15:24:10.923Z,11.45
2022-12-22T15:26:38.053Z,11.43
2022-12-22T15:29:04.532Z,10.15
2022-12-22T15:31:30.978Z,11.18
2022-12-22T15:33:59.367Z,11.00
2022-12-22T15:36:25.714Z,11.18
2022-12-22T15:38:52.089Z,10.40
2022-12-22T15:41:18.391Z,9.35
2022-12-22T15:44:00.113Z,10.48
2022-12-22T15:46:26.602Z,9.60
2022-12-22T15:48:53.059Z,9.63
2022-12-22T15:51:27.337Z,8.98
2022-12-22T15:53:55.075Z,8.38
2022-12-22T15:56:22.844Z,8.02
2022-12-22T15:58:49.553Z,8.20
2022-12-22T16:01:16.008Z,8.40
2022-12-22T16:03:42.420Z,7.82
2022-12-22T16:06:16.497Z,8.02
2022-12-22T16:09:00.939Z,8.32
2022-12-22T16:11:27.445Z,8.45
2022-12-22T16:13:53.862Z,8.35
2022-12-22T16:16:20.300Z,8.23
2022-12-22T16:18:46.697Z,8.10
2022-12-22T16:21:18.275Z,9.38
2022-12-22T16:23:45.655Z,8.25
2022-12-22T16:26:15.387Z,8.82
2022-12-22T16:28:41.775Z,8.88
2022-12-22T16:31:15.567Z,9.63
2022-12-22T16:33:41.965Z,8.93
2022-12-22T16:36:08.552Z,9.45
2022-12-22T16:38:35.078Z,8.98
2022-12-22T16:41:03.415Z,9.38
2022-12-22T16:43:50.899Z,10.50
2022-12-22T16:46:18.922Z,10.15
2022-12-22T16:48:49.942Z,9.55
2022-12-22T16:51:22.733Z,9.63
2022-12-22T16:53:49.260Z,9.80
2022-12-22T16:56:17.978Z,9.82
2022-12-22T16:58:44.690Z,9.20
2022-12-22T17:01:20.017Z,8.63
2022-12-22T17:03:46.416Z,10.25
2022-12-22T17:06:12.789Z,9.35
2022-12-22T17:08:41.651Z,9.27
2022-12-22T17:11:11.019Z,9.88
2022-12-22T17:13:38.440Z,9.13
2022-12-22T17:16:05.556Z,9.00
2022-12-22T17:18:32.846Z,9.75
2022-12-22T17:21:00.269Z,8.43
2022-12-22T17:23:32.054Z,9.07
2022-12-22T17:25:59.080Z,9.00
2022-12-22T17:28:25.582Z,9.20
2022-12-22T17:30:52.073Z,8.65
2022-12-22T17:33:18.475Z,9.15
2022-12-22T17:35:45.653Z,8.57
2022-12-22T17:38:16.569Z,6.00
2022-12-22T17:40:43.427Z,8.23
2022-12-22T17:43:16.647Z,9.30
2022-12-22T17:45:45.551Z,8.27
2022-12-22T17:48:12.695Z,7.22
2022-12-22T17:50:39.145Z,7.40
2022-12-22T17:53:06.895Z,6.95
2022-12-22T17:56:06.374Z,6.47
2022-12-22T18:00:45.924Z,6.50
2022-12-22T18:03:13.514Z,6.80
2022-12-22T18:05:44.543Z,6.18
2022-12-22T18:08:18.813Z,6.60
2022-12-22T18:10:45.695Z,5.50
2022-12-22T18:13:22.645Z,5.32
2022-12-22T18:15:49.059Z,6.13
2022-12-22T18:18:16.307Z,6.50
2022-12-22T18:20:43.327Z,6.57
2022-12-22T18:23:17.073Z,6.28
2022-12-22T18:25:43.444Z,6.03
2022-12-22T18:28:13.666Z,5.22
2022-12-22T18:30:40.069Z,5.57
2022-12-22T18:33:06.378Z,5.68
2022-12-22T18:35:32.840Z,5.97
2022-12-22T18:37:59.468Z,5.45
2022-12-22T18:40:28.852Z,4.90
2022-12-22T18:42:55.945Z,4.97
2022-12-22T18:45:23.340Z,5.18
2022-12-22T18:47:49.709Z,4.93
2022-12-22T18:50:20.559Z,4.65
2022-12-22T18:52:47.399Z,5.30
2022-12-22T18:55:16.838Z,5.25
2022-12-22T18:57:47.036Z,5.68
2022-12-22T19:00:17.798Z,6.28
2022-12-22T19:02:45.188Z,5.40
2022-12-22T19:05:14.764Z,5.85
2022-12-22T19:07:41.151Z,4.93
2022-12-22T19:10:08.351Z,4.78
2022-12-22T19:12:34.678Z,4.30
2022-12-22T19:15:05.182Z,4.97
2022-12-22T19:17:31.584Z,4.20
2022-12-22T19:19:58.093Z,3.03
2022-12-22T19:22:24.436Z,3.20
2022-12-22T19:24:51.521Z,2.70
2022-12-22T19:27:21.636Z,2.35
2022-12-22T19:29:48.070Z,2.55
2022-12-22T19:32:37.990Z,2.90
2022-12-22T19:35:06.480Z,3.17
2022-12-22T19:37:32.800Z,2.97
2022-12-22T19:39:59.108Z,2.70
2022-12-22T19:42:26.090Z,2.95
2022-12-22T19:44:52.435Z,2.42
2022-12-22T19:47:20.116Z,2.28
2022-12-22T19:49:46.565Z,2.40
2022-12-22T19:52:12.858Z,2.30
2022-12-22T19:54:40.084Z,2.38
2022-12-22T19:57:07.656Z,2.10
2022-12-22T19:59:38.722Z,2.13
2022-12-22T20:02:21.194Z,2.28
2022-12-22T20:04:48.123Z,2.10
2022-12-22T20:07:15.748Z,2.13
2022-12-22T20:09:42.161Z,2.30
2022-12-22T20:12:27.096Z,2.00
2022-12-22T20:14:53.544Z,2.20
2022-12-22T20:17:20.119Z,2.15
2022-12-22T20:19:46.452Z,2.22
2022-12-22T20:22:16.918Z,2.30
2022-12-22T20:24:44.409Z,2.20
2022-12-22T20:27:16.702Z,1.73
2022-12-22T20:29:43.064Z,1.63
2022-12-22T20:32:12.858Z,1.83
2022-12-22T20:34:39.282Z,1.30
2022-12-22T20:37:05.674Z,1.77
2022-12-22T20:39:32.081Z,1.02
2022-12-22T20:41:58.401Z,1.27
2022-12-22T20:44:24.804Z,0.98
2022-12-22T20:46:51.246Z,0.90
2022-12-22T20:49:17.599Z,0.85
2022-12-22T20:51:43.922Z,1.00
2022-12-22T20:54:13.359Z,1.20
2022-12-22T20:56:39.725Z,1.00
2022-12-22T20:59:17.197Z,0.90
2022-12-22T21:01:43.989Z,1.23
2022-12-22T21:04:10.340Z,1.38
2022-12-22T21:06:38.490Z,1.40
2022-12-22T21:09:05.573Z,1.98
2022-12-22T21:11:32.105Z,2.85
2022-12-22T21:13:58.866Z,2.15
2022-12-22T21:16:26.886Z,2.78
2022-12-22T21:18:53.970Z,2.50
2022-12-22T21:21:20.925Z,2.58
2022-12-22T21:23:47.336Z,2.75
2022-12-22T21:26:19.910Z,2.78
2022-12-22T21:28:46.331Z,2.70
2022-12-22T21:31:12.734Z,4.03
2022-12-22T21:33:39.066Z,3.22
2022-12-22T21:36:12.889Z,3.17
2022-12-22T21:38:39.260Z,3.10
2022-12-22T21:41:05.652Z,2.80
2022-12-22T21:43:31.980Z,3.53
2022-12-22T21:45:58.344Z,3.15
2022-12-22T21:48:24.821Z,3.17
2022-12-22T21:50:51.173Z,3.22
2022-12-22T21:53:22.296Z,3.78
2022-12-22T21:55:49.093Z,2.70
2022-12-22T21:58:15.637Z,3.08
2022-12-22T22:00:45.850Z,2.50
2022-12-22T22:03:13.307Z,2.55
2022-12-22T22:05:40.159Z,3.88
2022-12-22T22:08:07.615Z,3.42
2022-12-22T22:10:36.064Z,2.88
2022-12-22T22:13:02.721Z,4.30
2022-12-22T22:15:29.508Z,2.58
2022-12-22T22:17:58.670Z,3.13
2022-12-22T22:20:30.555Z,3.00
2022-12-22T22:22:58.820Z,2.35
2022-12-22T22:25:25.553Z,3.40
2022-12-22T22:27:51.919Z,3.65
2022-12-22T22:30:22.774Z,3.45
2022-12-22T22:32:49.211Z,2.97
2022-12-22T22:35:16.224Z,2.63
2022-12-22T22:37:44.442Z,2.60
2022-12-22T22:40:12.657Z,3.25
2022-12-22T22:42:39.065Z,2.80
2022-12-22T22:45:05.757Z,2.20
2022-12-22T22:47:32.153Z,2.33
2022-12-22T22:49:58.515Z,2.33
2022-12-22T22:52:25.058Z,2.55
2022-12-22T22:54:51.444Z,2.28
2022-12-22T22:57:17.976Z,2.05
2022-12-22T22:59:44.371Z,2.80
2022-12-22T23:02:10.939Z,2.40
2022-12-22T23:04:37.490Z,2.45
2022-12-22T23:07:03.876Z,1.40
2022-12-22T23:09:30.183Z,1.85
2022-12-22T23:11:56.645Z,2.05
2022-12-22T23:14:24.543Z,2.55
2022-12-22T23:16:51.034Z,2.15
2022-12-22T23:19:17.887Z,2.25
2022-12-22T23:21:45.107Z,3.60
2022-12-22T23:24:11.666Z,3.22
2022-12-22T23:26:39.140Z,3.13
2022-12-22T23:29:05.931Z,2.60
2022-12-22T23:31:33.126Z,3.15
2022-12-22T23:33:59.863Z,3.10
2022-12-22T23:36:26.365Z,2.63
2022-12-22T23:38:52.892Z,3.35
2022-12-22T23:41:19.365Z,3.38
2022-12-22T23:43:45.729Z,2.50
2022-12-22T23:46:13.376Z,3.10
2022-12-22T23:48:40.372Z,2.22
2022-12-22T23:51:07.352Z,2.40
2022-12-22T23:53:34.025Z,2.50
2022-12-22T23:56:00.506Z,2.50
2022-12-22T23:58:26.864Z,2.42
